createdAt,value
2023-03-29T16:21:30.286Z,29.18
2023-03-29T16:21:41.560Z,29.08
2023-03-29T16:21:51.574Z,27.76
2023-03-29T16:22:01.734Z,26.95
2023-03-29T16:22:11.817Z,26.75
2023-03-29T16:22:21.658Z,26.56
2023-03-29T16:22:31.977Z,26.66
2023-03-29T16:22:42.102Z,26.97
2023-03-29T16:22:53.244Z,26.86
2023-03-29T16:23:02.364Z,26.97
2023-03-29T16:23:12.309Z,26.97
2023-03-29T16:23:22.577Z,26.76
2023-03-29T16:23:32.742Z,26.86
2023-03-29T16:23:42.805Z,26.97
2023-03-29T16:24:02.976Z,26.67
2023-03-29T16:24:13.098Z,26.57
2023-03-29T16:24:23.408Z,26.47
2023-03-29T16:24:33.629Z,26.67
2023-03-29T16:24:43.701Z,26.87
2023-03-29T16:24:53.910Z,26.87
2023-03-29T16:25:03.876Z,26.77
2023-03-29T16:25:13.948Z,26.87
2023-03-29T16:25:24.167Z,27.18
2023-03-29T16:25:34.241Z,27.38
2023-03-29T16:25:44.341Z,27.28
2023-03-29T16:25:54.534Z,26.98
2023-03-29T16:26:05.739Z,26.98
2023-03-29T16:26:14.741Z,27.28
2023-03-29T16:26:25.091Z,27.58
2023-03-29T16:26:35.306Z,27.58
2023-03-29T16:26:45.168Z,27.28
2023-03-29T16:26:56.266Z,27.28
2023-03-29T16:27:15.481Z,27.48
2023-03-29T16:27:25.734Z,27.28
2023-03-29T16:27:36.264Z,26.77
2023-03-29T16:27:46.976Z,26.28
2023-03-29T16:27:56.144Z,26.18
2023-03-29T16:28:06.315Z,26.18
2023-03-29T16:28:16.116Z,26.38
2023-03-29T16:28:26.390Z,26.58
2023-03-29T16:28:36.571Z,26.68
2023-03-29T16:28:56.895Z,26.68
2023-03-29T16:29:06.946Z,26.68
2023-03-29T16:29:17.134Z,26.79
2023-03-29T16:29:27.422Z,26.68
2023-03-29T16:29:37.366Z,26.38
2023-03-29T16:29:47.568Z,26.18
2023-03-29T16:29:57.547Z,26.28
2023-03-29T16:30:08.366Z,26.28
2023-03-29T16:30:17.946Z,26.28
2023-03-29T16:30:28.053Z,26.28
2023-03-29T16:30:38.298Z,26.28
2023-03-29T16:30:48.269Z,26.18
2023-03-29T16:30:58.390Z,26.18
2023-03-29T16:31:08.450Z,25.98
2023-03-29T16:31:18.618Z,25.98
2023-03-29T16:31:28.738Z,25.98
2023-03-29T16:31:38.865Z,26.07
2023-03-29T16:31:49.012Z,26.28
2023-03-29T16:31:59.120Z,26.68
2023-03-29T16:32:09.313Z,26.68
2023-03-29T16:32:19.508Z,26.48
2023-03-29T16:32:29.518Z,26.79
2023-03-29T16:32:40.428Z,26.68
2023-03-29T16:32:49.917Z,26.68
2023-03-29T16:33:00.015Z,26.58
2023-03-29T16:33:11.103Z,26.68
2023-03-29T16:33:22.924Z,26.79
2023-03-29T16:33:30.549Z,26.58
2023-03-29T16:33:40.447Z,26.58
2023-03-29T16:33:50.555Z,26.68
2023-03-29T16:34:00.690Z,26.79
2023-03-29T16:34:11.193Z,26.79
2023-03-29T16:34:31.361Z,27.19
2023-03-29T16:34:41.350Z,27.29
2023-03-29T16:34:52.211Z,26.99
2023-03-29T16:35:01.389Z,26.79
2023-03-29T16:35:11.552Z,26.48
2023-03-29T16:35:22.330Z,26.28
2023-03-29T16:35:32.786Z,26.28
2023-03-29T16:35:41.869Z,26.48
2023-03-29T16:35:53.012Z,26.58
2023-03-29T16:36:02.670Z,26.99
2023-03-29T16:36:12.309Z,27.50
2023-03-29T16:36:22.316Z,27.89
2023-03-29T16:36:42.717Z,28.30
2023-03-29T16:36:52.776Z,28.09
2023-03-29T16:37:02.992Z,27.79
2023-03-29T16:37:13.066Z,27.58
2023-03-29T16:37:23.084Z,27.28
2023-03-29T16:37:33.314Z,27.08
2023-03-29T16:37:43.386Z,26.98
2023-03-29T16:37:53.679Z,26.98
2023-03-29T16:38:03.649Z,27.08
2023-03-29T16:38:13.707Z,27.08
2023-03-29T16:38:23.963Z,26.77
2023-03-29T16:38:34.077Z,26.56
2023-03-29T16:38:44.153Z,26.35
2023-03-29T16:38:54.371Z,26.66
2023-03-29T16:39:04.520Z,26.97
2023-03-29T16:39:14.597Z,26.76
2023-03-29T16:39:24.729Z,26.46
2023-03-29T16:39:34.961Z,26.46
2023-03-29T16:39:45.133Z,26.46
2023-03-29T16:39:55.144Z,26.46
2023-03-29T16:40:05.255Z,26.46
2023-03-29T16:40:15.310Z,26.76
2023-03-29T16:40:25.450Z,26.76
2023-03-29T16:40:35.588Z,27.06
2023-03-29T16:40:45.739Z,27.25
2023-03-29T16:40:55.961Z,27.36
2023-03-29T16:41:06.114Z,26.95
2023-03-29T16:41:16.225Z,26.54
2023-03-29T16:41:26.263Z,26.14
2023-03-29T16:41:36.365Z,26.04
2023-03-29T16:41:46.769Z,26.14
2023-03-29T16:41:56.676Z,26.14
2023-03-29T16:42:06.802Z,25.94
2023-03-29T16:42:17.382Z,25.73
2023-03-29T16:42:27.035Z,25.53
2023-03-29T16:42:37.893Z,25.43
2023-03-29T16:42:47.209Z,25.63
2023-03-29T16:42:57.999Z,26.04
2023-03-29T16:43:07.592Z,26.65
2023-03-29T16:43:17.566Z,27.05
2023-03-29T16:43:27.644Z,26.93
2023-03-29T16:43:38.399Z,26.73
2023-03-29T16:43:47.893Z,26.73
2023-03-29T16:43:57.971Z,27.24
2023-03-29T16:44:08.175Z,27.55
2023-03-29T16:44:20.933Z,27.03
2023-03-29T16:44:29.016Z,27.23
2023-03-29T16:44:39.156Z,26.82
2023-03-29T16:44:49.043Z,26.21
2023-03-29T16:44:59.121Z,25.71
2023-03-29T16:45:09.311Z,25.20
2023-03-29T16:45:20.267Z,25.31
2023-03-29T16:45:29.530Z,25.71
2023-03-29T16:45:39.504Z,25.92
2023-03-29T16:45:49.815Z,25.71
2023-03-29T16:45:59.889Z,25.81
2023-03-29T16:46:09.906Z,26.01
2023-03-29T16:46:30.245Z,25.82
2023-03-29T16:46:40.252Z,25.82
2023-03-29T16:46:50.322Z,25.82
2023-03-29T16:47:00.671Z,25.82
2023-03-29T16:47:10.767Z,25.82
2023-03-29T16:47:20.880Z,25.82
2023-03-29T16:47:30.862Z,26.03
2023-03-29T16:47:40.923Z,26.03
2023-03-29T16:47:51.104Z,26.23
2023-03-29T16:48:01.287Z,26.13
2023-03-29T16:48:11.885Z,26.03
2023-03-29T16:48:21.741Z,26.13
2023-03-29T16:48:31.941Z,25.93
2023-03-29T16:48:42.013Z,25.52
2023-03-29T16:48:51.911Z,25.93
2023-03-29T16:49:02.025Z,26.23
2023-03-29T16:49:12.162Z,26.13
2023-03-29T16:49:22.204Z,26.03
2023-03-29T16:49:32.352Z,26.03
2023-03-29T16:49:45.260Z,25.93
2023-03-29T16:49:52.747Z,25.72
2023-03-29T16:50:02.795Z,25.52
2023-03-29T16:50:13.914Z,25.42
2023-03-29T16:50:23.043Z,25.43
2023-03-29T16:50:33.863Z,25.53
2023-03-29T16:50:43.247Z,25.84
2023-03-29T16:50:53.356Z,25.73
2023-03-29T16:51:03.539Z,25.73
2023-03-29T16:51:23.764Z,25.44
2023-03-29T16:51:33.780Z,25.54
2023-03-29T16:51:44.058Z,25.66
2023-03-29T16:51:55.155Z,25.66
2023-03-29T16:52:04.228Z,25.86
2023-03-29T16:52:14.337Z,25.86
2023-03-29T16:52:24.562Z,25.96
2023-03-29T16:52:34.680Z,25.98
2023-03-29T16:52:44.936Z,25.98
2023-03-29T16:52:56.073Z,25.87
2023-03-29T16:53:05.171Z,26.18
2023-03-29T16:53:15.334Z,26.18
2023-03-29T16:53:25.329Z,26.28
2023-03-29T16:53:35.359Z,26.38
2023-03-29T16:53:45.612Z,26.68
2023-03-29T16:54:06.088Z,27.09
2023-03-29T16:54:16.002Z,27.19
2023-03-29T16:54:26.258Z,26.89
2023-03-29T16:54:36.366Z,26.79
2023-03-29T16:54:46.650Z,27.09
2023-03-29T16:54:56.612Z,27.29
2023-03-29T16:55:06.732Z,27.19
2023-03-29T16:55:17.487Z,27.09
2023-03-29T16:55:27.082Z,27.09
2023-03-29T16:55:37.198Z,26.89
2023-03-29T16:55:47.166Z,26.79
2023-03-29T16:55:57.195Z,26.79
2023-03-29T16:56:07.609Z,26.67
2023-03-29T16:56:17.572Z,26.77
2023-03-29T16:56:27.665Z,26.67
2023-03-29T16:56:37.977Z,26.47
2023-03-29T16:56:47.887Z,26.47
2023-03-29T16:56:58.918Z,26.77
2023-03-29T16:57:08.228Z,26.77
2023-03-29T16:57:18.328Z,26.87
2023-03-29T16:57:28.510Z,26.77
2023-03-29T16:57:38.405Z,26.47
2023-03-29T16:57:48.859Z,26.57
2023-03-29T16:58:08.841Z,26.26
2023-03-29T16:58:18.776Z,26.17
2023-03-29T16:58:29.050Z,26.17
2023-03-29T16:58:39.274Z,26.17
2023-03-29T16:58:49.532Z,26.26
2023-03-29T16:58:59.392Z,26.17
2023-03-29T16:59:09.637Z,26.17
2023-03-29T16:59:19.703Z,26.06
2023-03-29T16:59:29.956Z,26.06
2023-03-29T16:59:39.948Z,26.17
2023-03-29T16:59:50.118Z,26.06
2023-03-29T17:00:00.258Z,26.06
2023-03-29T17:00:10.432Z,26.17
2023-03-29T17:00:21.708Z,26.17
2023-03-29T17:00:30.764Z,26.06
2023-03-29T17:00:40.826Z,26.06
2023-03-29T17:00:51.040Z,26.26
2023-03-29T17:01:01.818Z,26.47
2023-03-29T17:01:11.312Z,26.67
2023-03-29T17:01:31.366Z,26.77
2023-03-29T17:01:41.500Z,26.46
2023-03-29T17:01:51.522Z,26.37
2023-03-29T17:02:01.690Z,26.26
2023-03-29T17:02:11.892Z,26.37
2023-03-29T17:02:22.066Z,26.57
2023-03-29T17:02:32.233Z,27.08
2023-03-29T17:02:42.987Z,26.98
2023-03-29T17:02:52.590Z,26.77
2023-03-29T17:03:02.535Z,26.87
2023-03-29T17:03:12.643Z,27.08
2023-03-29T17:03:22.903Z,27.18
2023-03-29T17:03:32.856Z,26.87
2023-03-29T17:03:43.092Z,26.68
2023-03-29T17:03:53.135Z,26.68
2023-03-29T17:04:04.031Z,26.89
2023-03-29T17:04:13.462Z,27.09
2023-03-29T17:04:23.486Z,27.29
2023-03-29T17:04:33.600Z,27.09
2023-03-29T17:04:44.462Z,26.79
2023-03-29T17:04:53.845Z,26.70
2023-03-29T17:05:03.957Z,26.50
2023-03-29T17:05:14.220Z,26.59
2023-03-29T17:05:24.167Z,27.00
2023-03-29T17:05:34.281Z,27.20
2023-03-29T17:05:54.484Z,27.51
2023-03-29T17:06:05.082Z,28.02
2023-03-29T17:06:14.744Z,28.12
2023-03-29T17:06:24.912Z,27.61
2023-03-29T17:06:35.098Z,27.61
2023-03-29T17:06:45.187Z,27.71
2023-03-29T17:06:55.324Z,27.51
2023-03-29T17:07:05.424Z,27.40
2023-03-29T17:07:15.643Z,27.61
2023-03-29T17:07:25.725Z,27.61
2023-03-29T17:07:35.848Z,27.22
2023-03-29T17:07:46.085Z,27.32
2023-03-29T17:07:56.125Z,27.12
2023-03-29T17:08:06.107Z,27.12
2023-03-29T17:08:16.313Z,27.22
2023-03-29T17:08:26.355Z,27.32
2023-03-29T17:08:36.584Z,27.22
2023-03-29T17:08:47.305Z,27.32
2023-03-29T17:08:56.779Z,27.32
2023-03-29T17:09:06.758Z,27.32
2023-03-29T17:09:16.941Z,27.32
2023-03-29T17:09:28.619Z,27.12
2023-03-29T17:09:37.092Z,27.22
2023-03-29T17:09:47.333Z,27.32
2023-03-29T17:09:58.294Z,27.62
2023-03-29T17:10:07.533Z,27.72
2023-03-29T17:10:17.705Z,27.72
2023-03-29T17:10:28.104Z,27.93
2023-03-29T17:10:37.967Z,28.13
2023-03-29T17:10:48.084Z,28.33
2023-03-29T17:11:08.332Z,28.23
2023-03-29T17:11:18.438Z,28.12
2023-03-29T17:11:28.828Z,28.42
2023-03-29T17:11:38.603Z,28.42
2023-03-29T17:11:48.781Z,28.32
2023-03-29T17:11:58.788Z,28.02
2023-03-29T17:12:08.991Z,27.81
2023-03-29T17:12:19.142Z,27.61
2023-03-29T17:12:29.256Z,27.71
2023-03-29T17:12:39.464Z,28.02
2023-03-29T17:12:49.659Z,27.81
2023-03-29T17:13:00.357Z,27.81
2023-03-29T17:13:09.639Z,27.40
2023-03-29T17:13:19.805Z,27.20
2023-03-29T17:13:29.968Z,27.12
2023-03-29T17:13:40.144Z,26.81
2023-03-29T17:13:50.296Z,27.22
2023-03-29T17:14:10.362Z,27.52
2023-03-29T17:14:20.511Z,27.22
2023-03-29T17:14:30.597Z,27.01
2023-03-29T17:14:40.890Z,26.91
2023-03-29T17:14:50.905Z,26.81
2023-03-29T17:15:00.938Z,26.81
2023-03-29T17:15:11.153Z,26.71
2023-03-29T17:15:21.209Z,26.72
2023-03-29T17:15:31.277Z,26.82
2023-03-29T17:15:41.432Z,26.82
2023-03-29T17:15:51.709Z,26.82
